Time;durP1;ratioP1;P1;durP2;ratioP2;P2;SDS_P1;SDS_P2;PMS_P1;PMS_P2;Temp;Humidity;BMP_temperature;BMP_pressure;BME280_temperature;BME280_humidity;BME280_pressure;Samples;Min_cycle;Max_cycle;Signal;HPM_P1;HPM_P2
2023/08/11 00:02:24;;;;;;;85.68;53.97;;;20.20;82.10;;;;;;4900516;28;96103;-49
2023/08/11 00:04:50;;;;;;;86.75;53.67;;;20.20;82.20;;;;;;4910382;28;98789;-45
2023/08/11 00:07:16;;;;;;;86.22;54.25;;;20.10;82.00;;;;;;4926996;28;95341;-47
2023/08/11 00:09:42;;;;;;;85.90;53.80;;;20.10;82.20;;;;;;4920344;28;95090;-48
2023/08/11 00:12:07;;;;;;;85.63;53.85;;;20.10;82.10;;;;;;4917791;28;96624;-44
2023/08/11 00:14:33;;;;;;;84.70;53.72;;;20.10;82.20;;;;;;4915695;28;99110;-46
2023/08/11 00:16:59;;;;;;;84.95;53.95;;;20.10;82.30;;;;;;4915555;28;101670;-44
2023/08/11 00:19:25;;;;;;;85.93;53.88;;;20.10;82.30;;;;;;4921622;28;96190;-47
2023/08/11 00:21:51;;;;;;;84.95;53.75;;;20.00;82.40;;;;;;4925226;28;98331;-46
2023/08/11 00:24:16;;;;;;;85.07;53.75;;;20.00;82.60;;;;;;4919153;28;99064;-44
2023/08/11 00:26:42;;;;;;;85.20;54.00;;;20.00;82.50;;;;;;4921146;28;99154;-47
2023/08/11 00:29:08;;;;;;;86.30;54.25;;;20.00;82.70;;;;;;4919972;28;100262;-50
2023/08/11 00:31:33;;;;;;;84.60;53.83;;;19.90;82.70;;;;;;4912232;28;96243;-46
2023/08/11 00:33:59;;;;;;;84.57;53.70;;;19.90;83.50;;;;;;4916133;28;95538;-48
2023/08/11 00:36:24;;;;;;;84.40;53.78;;;19.90;82.90;;;;;;4916251;28;98648;-45
2023/08/11 00:38:50;;;;;;;85.07;53.60;;;19.90;82.90;;;;;;4918629;28;95066;-50
2023/08/11 00:41:16;;;;;;;85.70;53.60;;;19.90;82.90;;;;;;4929847;28;95468;-48
2023/08/11 00:43:42;;;;;;;84.90;53.85;;;19.90;82.90;;;;;;4918093;28;94214;-47
2023/08/11 00:46:12;;;;;;;84.63;53.65;;;19.90;83.10;;;;;;4919624;28;96929;-45
2023/08/11 00:48:40;;;;;;;84.70;53.93;;;19.90;83.10;;;;;;4912496;28;95863;-46
2023/08/11 00:51:06;;;;;;;86.20;53.75;;;19.80;83.10;;;;;;4924250;28;96235;-47
2023/08/11 00:53:36;;;;;;;84.80;53.85;;;19.80;83.20;;;;;;4914920;28;95905;-46
2023/08/11 00:56:03;;;;;;;85.85;54.13;;;19.70;83.10;;;;;;4921869;28;99451;-48
2023/08/11 00:58:30;;;;;;;85.35;53.95;;;19.70;83.20;;;;;;4915130;28;97763;-46
2023/08/11 01:00:57;;;;;;;84.40;53.63;;;19.70;83.20;;;;;;4911997;28;95563;-48
2023/08/11 01:03:23;;;;;;;84.95;53.83;;;19.70;83.30;;;;;;4914701;28;97003;-49
2023/08/11 01:06:18;;;;;;;85.80;53.78;;;19.70;83.40;;;;;;4919233;28;99283;-46
2023/08/11 01:08:52;;;;;;;85.20;53.70;;;19.70;83.40;;;;;;4903282;28;95262;-48
2023/08/11 01:11:44;;;;;;;85.45;53.92;;;19.70;83.40;;;;;;4917455;28;95518;-46
2023/08/11 01:14:23;;;;;;;84.57;53.60;;;19.70;83.40;;;;;;4910471;28;95190;-44
2023/08/11 01:16:51;;;;;;;85.65;53.97;;;19.70;83.50;;;;;;4916990;28;97662;-48
2023/08/11 01:19:36;;;;;;;85.03;53.97;;;19.60;83.50;;;;;;4923456;28;95189;-46
2023/08/11 01:22:06;;;;;;;84.28;53.55;;;19.60;83.60;;;;;;4913655;28;98719;-46
2023/08/11 01:24:32;;;;;;;84.78;53.80;;;19.60;83.80;;;;;;4915398;28;99213;-47
2023/08/11 01:26:58;;;;;;;84.90;54.05;;;19.60;83.80;;;;;;4931074;28;94811;-44
2023/08/11 01:29:26;;;;;;;85.50;53.67;;;19.60;83.70;;;;;;4909357;28;95485;-45
2023/08/11 01:31:51;;;;;;;84.70;53.72;;;19.60;83.70;;;;;;4913747;28;95922;-49
2023/08/11 01:34:17;;;;;;;84.65;53.90;;;19.60;83.70;;;;;;4919532;28;94335;-44
2023/08/11 01:36:43;;;;;;;84.88;53.58;;;19.50;83.70;;;;;;4918451;28;95108;-47
2023/08/11 01:39:13;;;;;;;84.40;54.03;;;19.50;83.70;;;;;;4918092;28;99943;-50
2023/08/11 01:41:39;;;;;;;85.65;53.83;;;19.50;83.70;;;;;;4922951;28;96217;-48
2023/08/11 01:44:05;;;;;;;84.38;53.80;;;19.50;83.70;;;;;;4922958;28;96120;-44
2023/08/11 01:46:32;;;;;;;84.78;53.58;;;19.50;83.80;;;;;;4915491;28;97077;-46
2023/08/11 01:48:58;;;;;;;84.60;53.65;;;19.40;83.90;;;;;;4913712;28;95111;-45
2023/08/11 01:51:24;;;;;;;87.10;54.20;;;19.40;83.80;;;;;;4915559;28;96991;-44
2023/08/11 01:53:51;;;;;;;84.18;53.95;;;19.40;83.90;;;;;;4922830;28;94699;-47
2023/08/11 01:56:18;;;;;;;86.05;53.92;;;19.40;83.90;;;;;;4915643;28;100146;-47
2023/08/11 01:58:44;;;;;;;87.47;53.97;;;19.40;84.00;;;;;;4910311;28;98705;-46
2023/08/11 02:01:10;;;;;;;83.80;53.42;;;19.40;84.20;;;;;;4915671;28;99642;-44
2023/08/11 02:03:35;;;;;;;84.63;54.03;;;19.40;84.10;;;;;;4919066;28;95030;-46
2023/08/11 02:06:01;;;;;;;85.13;53.88;;;19.40;84.20;;;;;;4909705;28;99922;-46
2023/08/11 02:08:27;;;;;;;84.80;53.92;;;19.40;84.30;;;;;;4917624;28;96739;-46
2023/08/11 02:10:53;;;;;;;84.07;53.50;;;19.40;84.20;;;;;;4914892;28;98593;-43
2023/08/11 02:13:19;;;;;;;85.93;54.15;;;19.30;84.20;;;;;;4904832;28;97227;-48
2023/08/11 02:15:45;;;;;;;85.03;53.72;;;19.30;84.40;;;;;;4908005;28;94901;-44
2023/08/11 02:18:11;;;;;;;85.45;53.88;;;19.30;84.40;;;;;;4917565;28;94746;-46
2023/08/11 02:20:36;;;;;;;84.20;53.55;;;19.30;84.40;;;;;;4917594;28;97160;-47
2023/08/11 02:23:02;;;;;;;84.90;53.65;;;19.30;84.70;;;;;;4908994;28;95059;-47
2023/08/11 02:25:28;;;;;;;84.40;53.63;;;19.30;84.80;;;;;;4917560;28;96478;-47
2023/08/11 02:27:53;;;;;;;84.18;53.65;;;19.20;84.50;;;;;;4913542;28;97265;-47
2023/08/11 02:30:21;;;;;;;86.28;53.88;;;19.20;84.50;;;;;;4914272;28;101852;-45
2023/08/11 02:32:47;;;;;;;84.28;53.58;;;19.20;84.40;;;;;;4911180;28;94794;-48
2023/08/11 02:35:14;;;;;;;85.22;53.72;;;19.20;84.40;;;;;;4914345;28;100231;-46
2023/08/11 02:37:40;;;;;;;83.68;53.63;;;19.20;84.50;;;;;;4918097;28;98673;-50
2023/08/11 02:40:10;;;;;;;84.05;53.33;;;19.20;84.50;;;;;;4908118;28;95319;-48
2023/08/11 02:42:43;;;;;;;84.70;53.67;;;19.20;84.70;;;;;;4911843;28;94924;-46
2023/08/11 02:45:10;;;;;;;83.80;53.42;;;19.20;84.70;;;;;;4917987;28;95192;-48
2023/08/11 02:47:36;;;;;;;84.40;54.00;;;19.20;84.80;;;;;;4926768;28;98327;-44
2023/08/11 02:50:04;;;;;;;84.85;53.78;;;19.10;84.80;;;;;;4918548;28;96484;-47
2023/08/11 02:52:30;;;;;;;84.55;53.50;;;19.10;85.20;;;;;;4916804;28;95698;-45
2023/08/11 02:54:55;;;;;;;85.15;53.78;;;19.10;84.40;;;;;;4915163;28;101560;-44
2023/08/11 02:57:21;;;;;;;85.38;53.78;;;19.10;84.50;;;;;;4928082;28;94866;-45
2023/08/11 02:59:49;;;;;;;84.05;53.65;;;19.10;84.50;;;;;;4913022;28;99392;-46
2023/08/11 03:02:16;;;;;;;84.53;53.72;;;19.10;84.40;;;;;;4908797;28;95852;-49
2023/08/11 03:04:42;;;;;;;84.75;53.97;;;19.10;84.30;;;;;;4915018;28;97187;-50
2023/08/11 03:07:09;;;;;;;84.75;53.63;;;19.10;84.30;;;;;;4920649;28;95746;-52
2023/08/11 03:09:35;;;;;;;86.18;53.97;;;19.10;84.40;;;;;;4913549;28;95042;-47
2023/08/11 03:12:01;;;;;;;85.70;53.50;;;19.10;84.70;;;;;;4914415;28;95164;-47
2023/08/11 03:14:26;;;;;;;83.38;53.47;;;19.10;84.50;;;;;;4919755;28;95187;-49
2023/08/11 03:16:53;;;;;;;83.10;53.58;;;19.10;84.80;;;;;;4930668;28;95916;-46
2023/08/11 03:19:18;;;;;;;83.90;53.35;;;19.00;84.90;;;;;;4915071;28;100908;-46
2023/08/11 03:21:44;;;;;;;83.88;53.80;;;19.00;85.10;;;;;;4908096;28;96747;-50
2023/08/11 03:24:09;;;;;;;84.28;53.28;;;19.00;84.90;;;;;;4906028;28;97915;-49
2023/08/11 03:26:36;;;;;;;84.25;53.80;;;19.00;84.90;;;;;;4915550;28;98090;-45
2023/08/11 03:29:02;;;;;;;83.78;53.55;;;19.00;84.90;;;;;;4917763;28;95133;-44
2023/08/11 03:31:28;;;;;;;83.25;53.40;;;19.00;84.70;;;;;;4918977;28;96757;-43
2023/08/11 03:33:53;;;;;;;84.60;53.63;;;19.00;84.60;;;;;;4922892;28;94535;-49
2023/08/11 03:36:19;;;;;;;85.18;54.15;;;18.90;84.50;;;;;;4921831;28;95002;-44
2023/08/11 03:38:44;;;;;;;83.85;53.90;;;19.00;84.70;;;;;;4919655;28;96716;-47
2023/08/11 03:41:10;;;;;;;85.05;53.70;;;18.90;84.90;;;;;;4923085;28;95008;-44
2023/08/11 03:43:36;;;;;;;84.93;53.95;;;18.90;85.00;;;;;;4903855;28;97528;-44
2023/08/11 03:46:01;;;;;;;83.82;53.58;;;18.90;84.90;;;;;;4926571;28;97940;-44
2023/08/11 03:48:27;;;;;;;84.57;53.60;;;18.90;84.90;;;;;;4922346;28;94697;-44
2023/08/11 03:50:57;;;;;;;84.03;53.88;;;18.90;85.10;;;;;;4923206;28;95145;-46
2023/08/11 03:53:23;;;;;;;85.33;53.70;;;18.90;84.80;;;;;;4929785;28;99476;-48
2023/08/11 03:55:49;;;;;;;84.53;53.80;;;18.90;85.20;;;;;;4919476;28;94639;-48
2023/08/11 03:58:15;;;;;;;83.60;53.65;;;18.90;84.80;;;;;;4916562;28;94684;-45
2023/08/11 04:00:40;;;;;;;85.65;54.10;;;18.90;84.80;;;;;;4923446;28;94501;-47
2023/08/11 04:03:09;;;;;;;83.80;53.40;;;18.90;85.00;;;;;;4916465;28;96388;-43
2023/08/11 04:05:35;;;;;;;86.35;54.00;;;18.90;85.10;;;;;;4916891;28;96400;-44
2023/08/11 04:08:01;;;;;;;85.20;53.92;;;18.90;84.90;;;;;;4919428;28;95920;-46
2023/08/11 04:10:27;;;;;;;84.93;53.92;;;18.80;85.00;;;;;;4920813;28;96041;-45
2023/08/11 04:12:52;;;;;;;84.50;53.45;;;18.80;85.00;;;;;;4919391;28;95674;-44
2023/08/11 04:15:18;;;;;;;85.35;53.38;;;18.80;85.10;;;;;;4922485;28;94702;-45
2023/08/11 04:17:43;;;;;;;83.95;53.83;;;18.80;84.90;;;;;;4923269;28;96208;-44
2023/08/11 04:20:13;;;;;;;84.35;53.58;;;18.80;84.90;;;;;;4923338;28;94947;-47
2023/08/11 04:22:42;;;;;;;85.22;53.90;;;18.80;84.90;;;;;;4920524;28;96415;-45
2023/08/11 04:25:10;;;;;;;85.25;53.65;;;18.80;84.80;;;;;;4913802;28;93957;-47
2023/08/11 04:27:37;;;;;;;84.22;53.95;;;18.80;84.80;;;;;;4915769;28;97518;-44
2023/08/11 04:30:04;;;;;;;85.05;53.45;;;18.80;84.70;;;;;;4921770;28;96446;-43
2023/08/11 04:32:29;;;;;;;84.57;53.55;;;18.80;84.80;;;;;;4917289;28;96557;-44
2023/08/11 04:34:55;;;;;;;84.68;53.97;;;18.80;85.40;;;;;;4921249;28;98512;-42
2023/08/11 04:37:20;;;;;;;84.68;53.65;;;18.80;84.70;;;;;;4926182;28;96776;-43
2023/08/11 04:39:46;;;;;;;88.75;53.95;;;18.70;85.10;;;;;;4915610;28;100174;-43
2023/08/11 04:42:12;;;;;;;83.78;53.50;;;18.80;84.90;;;;;;4918339;28;99858;-46
2023/08/11 04:44:38;;;;;;;84.85;53.80;;;18.70;85.20;;;;;;4918516;28;96493;-44
2023/08/11 04:47:04;;;;;;;85.15;53.35;;;18.80;85.30;;;;;;4921723;28;94721;-43
2023/08/11 04:49:32;;;;;;;83.20;53.55;;;18.80;84.90;;;;;;4929948;28;97301;-42
2023/08/11 04:51:58;;;;;;;84.53;53.83;;;18.80;84.80;;;;;;4918324;28;96258;-45
2023/08/11 04:54:23;;;;;;;84.15;53.55;;;18.80;84.60;;;;;;4929547;28;94712;-45
2023/08/11 04:56:50;;;;;;;84.15;53.65;;;18.80;85.40;;;;;;4925535;28;97789;-43
2023/08/11 04:59:17;;;;;;;83.82;53.72;;;18.80;85.30;;;;;;4918784;28;99125;-43
2023/08/11 05:01:42;;;;;;;83.47;53.60;;;18.80;86.50;;;;;;4918236;28;95166;-46
2023/08/11 05:04:09;;;;;;;83.78;53.67;;;18.80;84.50;;;;;;4915443;28;94819;-45
2023/08/11 05:06:35;;;;;;;85.18;53.72;;;18.80;84.80;;;;;;4919763;28;95152;-43
2023/08/11 05:09:02;;;;;;;82.72;53.28;;;18.80;84.60;;;;;;4923230;28;94782;-42
2023/08/11 05:11:29;;;;;;;86.75;53.88;;;18.80;85.30;;;;;;4919955;28;94977;-42
2023/08/11 05:13:54;;;;;;;83.68;53.78;;;18.80;84.10;;;;;;4903345;28;94562;-44
2023/08/11 05:16:20;;;;;;;84.97;53.63;;;18.90;84.20;;;;;;4924407;28;108237;-43
2023/08/11 05:18:46;;;;;;;83.72;53.65;;;18.80;84.20;;;;;;4898012;28;99514;-44
2023/08/11 05:21:13;;;;;;;84.35;53.80;;;18.90;84.30;;;;;;4899702;28;95974;-43
2023/08/11 05:23:39;;;;;;;84.10;53.75;;;18.90;84.60;;;;;;4923317;28;97669;-43
2023/08/11 05:26:05;;;;;;;85.38;53.83;;;18.90;84.00;;;;;;4917752;28;95531;-44
2023/08/11 05:28:30;;;;;;;83.68;53.55;;;18.90;83.90;;;;;;4919730;28;95803;-44
2023/08/11 05:30:56;;;;;;;85.05;53.53;;;18.90;84.20;;;;;;4925611;28;94644;-43
2023/08/11 05:33:23;;;;;;;85.93;53.40;;;18.90;84.70;;;;;;4923142;28;94823;-48
2023/08/11 05:35:49;;;;;;;84.07;53.67;;;18.90;86.20;;;;;;4922863;28;95786;-45
2023/08/11 05:38:15;;;;;;;86.90;53.42;;;18.90;84.40;;;;;;4915633;28;95885;-46
2023/08/11 05:40:42;;;;;;;82.40;53.50;;;19.00;84.50;;;;;;4909275;28;96573;-48
2023/08/11 05:43:08;;;;;;;84.75;53.67;;;19.00;84.30;;;;;;4924152;28;101242;-47
2023/08/11 05:45:34;;;;;;;85.68;53.50;;;19.00;84.70;;;;;;4923052;28;95906;-45
2023/08/11 05:47:59;;;;;;;84.20;53.65;;;19.10;85.50;;;;;;4915311;28;97672;-45
2023/08/11 05:50:25;;;;;;;87.00;53.65;;;19.10;84.80;;;;;;4916001;28;94912;-44
2023/08/11 05:52:51;;;;;;;83.72;53.40;;;19.10;84.90;;;;;;4922904;28;95052;-45
2023/08/11 05:55:16;;;;;;;84.40;53.63;;;19.10;85.90;;;;;;4912947;28;95448;-44
2023/08/11 05:57:42;;;;;;;84.63;53.75;;;19.10;83.90;;;;;;4914843;28;95521;-47
2023/08/11 06:00:09;;;;;;;84.78;53.58;;;19.10;84.70;;;;;;4916247;28;95490;-44
2023/08/11 06:02:34;;;;;;;85.10;53.78;;;19.20;84.00;;;;;;4927238;28;95100;-44
2023/08/11 06:05:00;;;;;;;84.60;54.10;;;19.20;84.50;;;;;;4919166;28;99129;-44
2023/08/11 06:07:26;;;;;;;85.30;53.53;;;19.20;83.90;;;;;;4922697;28;95118;-47
2023/08/11 06:09:51;;;;;;;85.32;53.88;;;19.30;85.00;;;;;;4919501;28;98022;-45
2023/08/11 06:12:17;;;;;;;84.50;54.00;;;19.30;83.50;;;;;;4920891;28;95483;-45
2023/08/11 06:14:42;;;;;;;84.57;53.75;;;19.30;83.50;;;;;;4918194;28;96622;-44
2023/08/11 06:17:08;;;;;;;83.57;53.63;;;19.30;83.30;;;;;;4920299;28;97248;-43
2023/08/11 06:19:33;;;;;;;83.68;53.78;;;19.40;84.00;;;;;;4914200;28;96272;-43
2023/08/11 06:21:59;;;;;;;85.65;54.10;;;19.40;83.70;;;;;;4919561;28;99452;-45
2023/08/11 06:24:25;;;;;;;84.70;53.90;;;19.50;84.70;;;;;;4917053;28;97863;-46
2023/08/11 06:26:54;;;;;;;86.10;54.20;;;19.50;85.20;;;;;;4912199;28;95200;-47
2023/08/11 06:29:20;;;;;;;86.90;54.03;;;19.50;84.00;;;;;;4928700;28;96998;-45
2023/08/11 06:31:46;;;;;;;89.45;54.08;;;19.60;87.50;;;;;;4898667;28;95363;-46
2023/08/11 06:34:12;;;;;;;85.25;54.17;;;19.70;87.10;;;;;;4903498;28;97209;-43
2023/08/11 06:36:38;;;;;;;86.72;54.08;;;19.70;86.50;;;;;;4904967;28;95536;-45
2023/08/11 06:39:04;;;;;;;86.13;54.40;;;19.70;85.30;;;;;;4908594;28;98395;-45
2023/08/11 06:41:29;;;;;;;85.13;53.95;;;19.80;86.10;;;;;;4922365;28;95151;-46
2023/08/11 06:43:56;;;;;;;88.95;54.72;;;19.80;86.40;;;;;;4914733;28;99626;-44
2023/08/11 06:46:21;;;;;;;88.93;54.90;;;19.90;85.00;;;;;;4919856;28;99685;-44
2023/08/11 06:48:47;;;;;;;91.00;55.10;;;19.90;86.70;;;;;;4915550;28;95009;-46
2023/08/11 06:51:12;;;;;;;90.38;55.13;;;20.00;85.50;;;;;;4914926;28;98367;-45
2023/08/11 06:53:38;;;;;;;93.32;55.95;;;20.00;85.20;;;;;;4913542;28;94723;-48
2023/08/11 06:56:04;;;;;;;90.93;55.28;;;20.10;85.80;;;;;;4905181;28;99329;-45
2023/08/11 06:58:29;;;;;;;90.82;55.35;;;20.20;86.10;;;;;;4923640;28;96346;-45
2023/08/11 07:00:55;;;;;;;89.45;55.47;;;20.20;83.10;;;;;;4917989;28;98217;-47
2023/08/11 07:03:21;;;;;;;88.15;54.92;;;20.20;81.90;;;;;;4917640;28;96564;-47
2023/08/11 07:05:49;;;;;;;88.78;54.88;;;20.20;81.50;;;;;;4911840;28;95040;-45
2023/08/11 07:08:15;;;;;;;88.63;55.05;;;20.30;82.40;;;;;;4915741;28;98259;-44
2023/08/11 07:10:40;;;;;;;92.43;55.03;;;20.30;81.60;;;;;;4899271;28;101038;-44
2023/08/11 07:13:06;;;;;;;89.43;54.97;;;20.30;81.60;;;;;;4908610;28;96134;-45
2023/08/11 07:15:31;;;;;;;90.93;55.42;;;20.40;81.40;;;;;;4909156;28;96532;-44
2023/08/11 07:18:10;;;;;;;87.22;55.30;;;20.40;80.90;;;;;;4910601;28;102500;-44
2023/08/11 07:20:42;;;;;;;88.65;55.30;;;20.40;83.00;;;;;;4918204;28;96423;-43
2023/08/11 07:23:08;;;;;;;91.03;55.53;;;20.70;82.70;;;;;;4903532;28;96640;-44
2023/08/11 07:25:33;;;;;;;89.78;55.45;;;20.80;82.80;;;;;;4897932;28;97524;-47
2023/08/11 07:27:59;;;;;;;94.82;55.25;;;21.00;83.40;;;;;;4917449;28;95608;-44
2023/08/11 07:30:25;;;;;;;90.18;54.85;;;21.00;81.70;;;;;;4908590;28;95465;-45
2023/08/11 07:32:50;;;;;;;93.55;56.03;;;21.20;81.80;;;;;;4915926;28;100803;-44
2023/08/11 07:35:16;;;;;;;90.88;55.55;;;21.20;80.40;;;;;;4900056;28;95299;-45
2023/08/11 07:37:42;;;;;;;90.32;55.30;;;21.30;80.70;;;;;;4919271;28;100478;-43
2023/08/11 07:40:08;;;;;;;88.55;55.38;;;21.30;80.00;;;;;;4918512;28;93997;-45
2023/08/11 07:42:33;;;;;;;89.38;55.33;;;21.40;78.90;;;;;;4921091;28;98524;-47
2023/08/11 07:44:59;;;;;;;89.03;55.83;;;21.50;80.00;;;;;;4914368;28;95329;-45
2023/08/11 07:47:25;;;;;;;87.63;55.45;;;21.50;80.30;;;;;;4912383;28;97536;-45
2023/08/11 07:49:50;;;;;;;90.18;55.70;;;21.60;80.50;;;;;;4913854;28;95447;-44
2023/08/11 07:52:17;;;;;;;92.20;55.50;;;21.60;80.30;;;;;;4910796;28;94992;-44
2023/08/11 07:54:43;;;;;;;87.63;55.45;;;21.70;80.60;;;;;;4911091;28;95048;-44
2023/08/11 07:57:08;;;;;;;88.50;55.28;;;21.80;81.00;;;;;;4915893;28;97536;-46
2023/08/11 07:59:34;;;;;;;88.95;56.08;;;21.80;81.60;;;;;;4921682;28;99505;-46
2023/08/11 08:02:00;;;;;;;90.95;55.78;;;21.80;81.50;;;;;;4919373;28;95356;-45
2023/08/11 08:04:25;;;;;;;86.72;54.95;;;21.90;80.70;;;;;;4915855;28;95465;-48
2023/08/11 08:06:51;;;;;;;90.22;55.38;;;21.90;80.00;;;;;;4926333;28;95588;-44
2023/08/11 08:09:18;;;;;;;90.45;55.80;;;21.90;80.80;;;;;;4913992;28;99293;-44
2023/08/11 08:11:45;;;;;;;88.90;55.47;;;21.90;80.90;;;;;;4913858;28;96057;-44
2023/08/11 08:14:12;;;;;;;90.45;55.53;;;22.00;82.10;;;;;;4924130;28;97044;-47
2023/08/11 08:16:38;;;;;;;88.93;55.53;;;22.00;82.20;;;;;;4915325;28;96762;-44
2023/08/11 08:19:05;;;;;;;90.00;55.42;;;22.10;82.60;;;;;;4914269;28;98334;-45
2023/08/11 08:21:32;;;;;;;91.78;55.70;;;22.00;82.10;;;;;;4923633;28;94915;-45
2023/08/11 08:23:58;;;;;;;91.20;55.92;;;22.10;82.40;;;;;;4928388;28;94839;-47
2023/08/11 08:26:24;;;;;;;91.43;55.78;;;22.10;82.50;;;;;;4921023;28;96048;-44
2023/08/11 08:28:50;;;;;;;94.55;55.97;;;22.20;83.00;;;;;;4925904;28;94040;-49
2023/08/11 08:31:16;;;;;;;91.10;56.08;;;22.20;82.90;;;;;;4907724;28;95711;-47
2023/08/11 08:33:43;;;;;;;91.57;55.30;;;22.30;83.70;;;;;;4913219;28;95700;-45
2023/08/11 08:36:09;;;;;;;93.00;55.90;;;22.30;82.00;;;;;;4917101;28;96682;-45
2023/08/11 08:38:35;;;;;;;91.53;55.72;;;22.30;82.20;;;;;;4911037;28;95348;-46
2023/08/11 08:41:02;;;;;;;89.43;55.58;;;22.30;82.10;;;;;;4906252;28;95179;-45
2023/08/11 08:43:29;;;;;;;91.50;56.22;;;22.40;82.20;;;;;;4912709;28;97370;-47
2023/08/11 08:45:56;;;;;;;91.18;56.38;;;22.40;82.20;;;;;;4920559;28;94969;-44
2023/08/11 08:48:28;;;;;;;91.95;56.42;;;22.50;82.90;;;;;;4914032;28;95013;-45
2023/08/11 08:50:54;;;;;;;90.38;56.33;;;22.60;84.20;;;;;;4907152;28;97688;-45
2023/08/11 08:53:20;;;;;;;89.72;56.25;;;22.60;83.40;;;;;;4904219;28;97560;-46
2023/08/11 08:55:46;;;;;;;96.47;56.22;;;22.70;85.40;;;;;;4916152;28;102916;-46
2023/08/11 08:58:14;;;;;;;89.35;56.25;;;22.70;83.90;;;;;;4913977;28;95017;-48
2023/08/11 09:00:40;;;;;;;89.60;56.00;;;22.80;83.40;;;;;;4910702;28;96183;-45
2023/08/11 09:03:07;;;;;;;96.68;56.35;;;22.80;82.20;;;;;;4909112;28;96181;-45
2023/08/11 09:05:34;;;;;;;90.53;56.10;;;22.90;81.30;;;;;;4917550;28;99937;-50
2023/08/11 09:07:59;;;;;;;89.43;55.33;;;22.90;82.70;;;;;;4920618;28;96141;-46
2023/08/11 09:10:25;;;;;;;91.18;55.75;;;22.90;81.80;;;;;;4915960;28;96682;-47
2023/08/11 09:12:51;;;;;;;90.63;56.40;;;23.00;83.80;;;;;;4913250;28;97570;-49
2023/08/11 09:15:17;;;;;;;90.22;55.80;;;23.00;80.90;;;;;;4903291;28;99888;-49
2023/08/11 09:17:43;;;;;;;92.13;55.72;;;23.00;80.10;;;;;;4907622;28;99033;-47
2023/08/11 09:20:17;;;;;;;93.40;56.47;;;23.00;79.30;;;;;;4914544;28;95837;-47
2023/08/11 09:22:43;;;;;;;90.75;56.20;;;23.10;79.30;;;;;;4911696;28;97695;-46
2023/08/11 09:25:10;;;;;;;94.20;56.35;;;23.10;80.70;;;;;;4917937;28;96271;-49
2023/08/11 09:27:36;;;;;;;94.60;56.13;;;23.20;78.20;;;;;;4915370;28;96384;-45
2023/08/11 09:30:03;;;;;;;93.60;56.03;;;23.20;79.70;;;;;;4915056;28;98803;-46
2023/08/11 09:32:32;;;;;;;92.38;56.00;;;23.30;80.90;;;;;;4922634;28;95955;-47
2023/08/11 09:35:02;;;;;;;89.97;56.10;;;23.30;79.60;;;;;;4909816;28;96605;-45
2023/08/11 09:37:28;;;;;;;91.07;56.20;;;23.30;77.20;;;;;;4917850;28;96821;-45
2023/08/11 09:40:01;;;;;;;91.47;56.85;;;23.30;76.70;;;;;;4913366;28;96405;-44
2023/08/11 09:42:27;;;;;;;91.45;56.42;;;23.40;76.40;;;;;;4925656;28;95769;-45
2023/08/11 09:44:53;;;;;;;91.90;55.83;;;23.40;78.10;;;;;;4920917;28;96946;-47
2023/08/11 09:47:19;;;;;;;90.68;56.35;;;23.50;78.30;;;;;;4906844;28;96105;-45
2023/08/11 09:49:44;;;;;;;93.85;56.58;;;23.50;76.90;;;;;;4912685;28;100400;-47
2023/08/11 09:52:12;;;;;;;93.70;56.20;;;23.60;73.90;;;;;;4909042;28;97894;-48
2023/08/11 09:54:41;;;;;;;92.80;56.42;;;23.60;74.60;;;;;;4908141;28;96674;-46
2023/08/11 09:57:07;;;;;;;90.13;56.05;;;23.60;75.10;;;;;;4910317;28;95167;-49
2023/08/11 09:59:34;;;;;;;90.97;55.65;;;23.60;75.10;;;;;;4908589;28;98055;-47
2023/08/11 10:02:02;;;;;;;93.13;56.03;;;23.70;75.10;;;;;;4898614;28;97878;-47
2023/08/11 10:04:37;;;;;;;91.25;56.08;;;23.60;75.70;;;;;;4910108;28;96208;-48
2023/08/11 10:07:09;;;;;;;92.38;56.22;;;23.60;75.00;;;;;;4914207;28;97632;-46
2023/08/11 10:09:36;;;;;;;93.20;56.22;;;23.70;76.20;;;;;;4908570;28;99660;-48
2023/08/11 10:12:04;;;;;;;91.05;55.72;;;23.70;76.40;;;;;;4915328;28;96498;-48
2023/08/11 10:14:34;;;;;;;92.22;56.30;;;23.80;76.20;;;;;;4913742;28;95764;-47
2023/08/11 10:17:00;;;;;;;93.97;56.83;;;23.80;74.00;;;;;;4908337;28;96099;-47
2023/08/11 10:19:26;;;;;;;95.55;56.42;;;23.90;75.80;;;;;;4877767;28;1190888;-47
2023/08/11 10:21:52;;;;;;;94.18;56.67;;;24.00;75.10;;;;;;4901629;28;95198;-51
2023/08/11 10:24:19;;;;;;;93.15;56.22;;;24.00;75.70;;;;;;4899885;28;97106;-48
2023/08/11 10:26:44;;;;;;;92.25;56.80;;;24.10;75.30;;;;;;4885936;28;98579;-46
2023/08/11 10:29:11;;;;;;;98.57;57.35;;;24.10;76.20;;;;;;4900022;28;96325;-47
2023/08/11 10:31:53;;;;;;;96.75;57.38;;;24.20;75.80;;;;;;4902842;28;95135;-45
2023/08/11 10:34:22;;;;;;;96.57;57.40;;;24.30;75.40;;;;;;4890702;28;96546;-45
2023/08/11 10:36:48;;;;;;;95.72;57.13;;;24.50;75.30;;;;;;4909390;28;97192;-46
2023/08/11 10:39:17;;;;;;;99.28;57.28;;;24.50;73.70;;;;;;4889781;28;102164;-46
2023/08/11 10:41:46;;;;;;;94.85;57.25;;;24.60;75.00;;;;;;4887025;28;95890;-46
2023/08/11 10:44:16;;;;;;;97.30;56.75;;;24.60;75.30;;;;;;4890680;28;97235;-42
2023/08/11 10:46:43;;;;;;;101.03;57.42;;;24.60;76.50;;;;;;4877518;28;106043;-49
2023/08/11 10:49:08;;;;;;;97.05;56.88;;;24.70;75.80;;;;;;4911484;28;96931;-49
2023/08/11 10:51:39;;;;;;;97.88;57.65;;;24.70;74.00;;;;;;4884519;28;96919;-47
2023/08/11 10:54:13;;;;;;;97.22;57.53;;;24.80;75.70;;;;;;4892446;28;103533;-45
2023/08/11 10:56:41;;;;;;;97.32;57.45;;;24.80;76.60;;;;;;4898082;28;97530;-46
2023/08/11 10:59:23;;;;;;;97.20;57.60;;;24.80;77.10;;;;;;4906141;28;99759;-46
2023/08/11 11:01:51;;;;;;;99.30;56.97;;;24.90;74.30;;;;;;4905360;28;96974;-46
2023/08/11 11:04:19;;;;;;;97.60;57.42;;;25.00;73.40;;;;;;4908602;28;97189;-45
2023/08/11 11:06:46;;;;;;;98.35;57.58;;;25.00;72.70;;;;;;4891832;28;101601;-45
2023/08/11 11:09:14;;;;;;;97.13;57.78;;;25.10;72.50;;;;;;4903110;28;95552;-49
2023/08/11 11:11:39;;;;;;;98.95;57.63;;;25.10;72.30;;;;;;4897910;28;95169;-47
2023/08/11 11:14:10;;;;;;;102.35;57.65;;;25.10;71.90;;;;;;4899459;28;97263;-46
2023/08/11 11:16:36;;;;;;;98.47;57.42;;;25.10;73.30;;;;;;4903913;28;96077;-45
2023/08/11 11:19:03;;;;;;;100.97;57.13;;;25.10;73.60;;;;;;4916526;28;103205;-44
2023/08/11 11:21:30;;;;;;;98.55;57.42;;;25.20;72.40;;;;;;4894460;28;96496;-45
2023/08/11 11:23:56;;;;;;;99.65;57.55;;;25.20;72.80;;;;;;4900158;28;96488;-45
2023/08/11 11:26:29;;;;;;;100.53;57.67;;;25.30;74.00;;;;;;4891170;28;98630;-46
2023/08/11 11:28:59;;;;;;;97.80;57.50;;;25.40;73.80;;;;;;4903881;28;99004;-50
2023/08/11 11:31:27;;;;;;;98.55;58.00;;;25.40;73.40;;;;;;4912205;28;98405;-47
2023/08/11 11:33:53;;;;;;;97.30;57.58;;;25.40;72.90;;;;;;4913384;28;96208;-46
2023/08/11 11:36:20;;;;;;;97.97;57.53;;;25.50;72.50;;;;;;4917185;28;99914;-48
2023/08/11 11:38:46;;;;;;;100.43;57.72;;;25.50;72.40;;;;;;4926375;28;95849;-46
2023/08/11 11:41:13;;;;;;;100.90;57.83;;;25.60;71.70;;;;;;4929334;28;96099;-48
2023/08/11 11:43:43;;;;;;;100.55;57.78;;;25.60;72.20;;;;;;4928460;28;96822;-47
2023/08/11 11:46:19;;;;;;;101.30;57.88;;;25.60;72.60;;;;;;4934558;28;94846;-45
2023/08/11 11:48:46;;;;;;;100.40;58.28;;;25.60;72.70;;;;;;4930915;28;95329;-50
2023/08/11 11:51:13;;;;;;;98.93;57.85;;;25.60;73.50;;;;;;4920506;28;101541;-48
2023/08/11 11:53:39;;;;;;;103.85;58.10;;;25.60;73.70;;;;;;4928185;28;96208;-48
2023/08/11 11:56:05;;;;;;;100.97;57.60;;;25.60;73.40;;;;;;4919780;28;97018;-46
2023/08/11 11:58:33;;;;;;;101.45;58.15;;;25.70;72.60;;;;;;4916570;28;99054;-45
2023/08/11 12:01:27;;;;;;;100.78;58.53;;;25.80;72.20;;;;;;4914067;28;94925;-45
2023/08/11 12:03:55;;;;;;;101.80;58.30;;;25.80;72.90;;;;;;4921003;28;96149;-47
2023/08/11 12:06:20;;;;;;;99.43;57.83;;;25.90;73.10;;;;;;4918929;28;97159;-47
2023/08/11 12:08:49;;;;;;;100.47;58.00;;;25.80;73.10;;;;;;4902501;28;96717;-47
2023/08/11 12:11:20;;;;;;;102.82;58.53;;;25.80;73.10;;;;;;4908041;28;96381;-50
2023/08/11 12:13:45;;;;;;;102.55;58.10;;;25.70;73.50;;;;;;4911972;28;101138;-47
2023/08/11 12:16:12;;;;;;;103.25;58.33;;;25.70;73.30;;;;;;4912809;28;95571;-48
2023/08/11 12:18:39;;;;;;;100.07;57.72;;;25.70;72.90;;;;;;4924944;28;96427;-49
2023/08/11 12:21:06;;;;;;;102.22;58.05;;;25.70;73.50;;;;;;4927690;28;97792;-48
2023/08/11 12:23:32;;;;;;;103.30;57.60;;;25.70;73.90;;;;;;4927394;28;96488;-49
2023/08/11 12:25:58;;;;;;;103.57;58.13;;;25.70;73.80;;;;;;4920686;28;95839;-47